createdAt,value
2022-08-20T00:00:23.579Z,87.49
2022-08-20T00:03:03.279Z,88.09
2022-08-20T00:05:39.552Z,87.59
2022-08-20T00:08:09.780Z,87.90
2022-08-20T00:10:42.931Z,87.80
2022-08-20T00:13:18.287Z,88.19
2022-08-20T00:15:48.429Z,89.32
2022-08-20T00:18:17.811Z,88.53
2022-08-20T00:20:51.324Z,89.06
2022-08-20T00:23:21.714Z,89.35
2022-08-20T00:25:52.426Z,88.28
2022-08-20T00:28:21.709Z,88.72
2022-08-20T00:30:51.035Z,88.85
2022-08-20T00:33:24.838Z,88.87
2022-08-20T00:35:57.389Z,89.72
2022-08-20T00:38:27.428Z,90.67
2022-08-20T00:40:58.966Z,90.18
2022-08-20T00:43:39.084Z,90.60
2022-08-20T00:46:13.010Z,91.04
2022-08-20T00:48:45.073Z,90.82
2022-08-20T00:51:29.882Z,89.41
2022-08-20T00:54:16.680Z,89.72
2022-08-20T00:56:48.725Z,88.46
2022-08-20T00:59:24.256Z,88.15
2022-08-20T01:01:55.697Z,88.20
2022-08-20T01:04:32.400Z,86.91
2022-08-20T01:07:02.628Z,87.18
2022-08-20T01:09:50.329Z,86.40
2022-08-20T01:12:21.459Z,86.64
2022-08-20T01:14:50.605Z,86.64
2022-08-20T01:17:24.681Z,86.42
2022-08-20T01:20:08.894Z,86.41
2022-08-20T01:23:19.170Z,86.00
2022-08-20T01:25:55.707Z,85.97
2022-08-20T01:28:29.378Z,85.08
2022-08-20T01:30:58.841Z,85.32
2022-08-20T01:33:28.034Z,85.62
2022-08-20T01:35:56.919Z,85.18
2022-08-20T01:38:25.911Z,84.83
2022-08-20T01:41:13.604Z,84.31
2022-08-20T01:43:42.959Z,84.44
2022-08-20T01:46:13.222Z,84.41
2022-08-20T01:48:45.038Z,84.51
2022-08-20T01:51:21.787Z,84.48
2022-08-20T01:53:56.075Z,84.51
2022-08-20T01:56:30.139Z,84.43
2022-08-20T01:59:01.601Z,83.72
2022-08-20T02:01:46.360Z,83.52
2022-08-20T02:04:19.110Z,83.62
2022-08-20T02:06:57.513Z,83.16
2022-08-20T02:09:32.949Z,83.13
2022-08-20T02:12:04.191Z,83.80
2022-08-20T02:14:34.845Z,83.11
2022-08-20T02:17:03.746Z,83.07
2022-08-20T02:19:46.998Z,82.76
2022-08-20T02:22:49.842Z,82.88
2022-08-20T02:25:23.108Z,82.82
2022-08-20T02:27:55.158Z,83.04
2022-08-20T02:30:30.526Z,82.95
2022-08-20T02:33:01.367Z,83.79
2022-08-20T02:35:33.869Z,82.59
2022-08-20T02:38:04.041Z,82.82
2022-08-20T02:40:34.385Z,82.69
2022-08-20T02:43:05.567Z,83.31
2022-08-20T02:45:40.364Z,82.63
2022-08-20T02:48:09.544Z,82.02
2022-08-20T02:50:38.495Z,82.87
2022-08-20T02:53:07.350Z,82.92
2022-08-20T02:55:36.382Z,81.84
2022-08-20T02:58:05.357Z,81.91
2022-08-20T03:00:38.420Z,81.26
2022-08-20T03:03:12.237Z,80.81
2022-08-20T03:05:44.210Z,80.95
2022-08-20T03:08:15.794Z,81.13
2022-08-20T03:10:47.952Z,80.03
2022-08-20T03:13:17.785Z,79.43
2022-08-20T03:15:58.093Z,80.50
2022-08-20T03:18:36.363Z,80.60
2022-08-20T03:21:07.690Z,80.21
2022-08-20T03:23:40.341Z,79.25
2022-08-20T03:26:12.691Z,79.31
2022-08-20T03:28:43.030Z,79.96
2022-08-20T03:31:14.727Z,79.55
2022-08-20T03:33:52.660Z,78.00
2022-08-20T03:36:28.592Z,76.44
2022-08-20T03:39:03.471Z,76.94
2022-08-20T03:41:33.202Z,77.14
2022-08-20T03:44:01.888Z,77.47
2022-08-20T03:46:31.039Z,76.24
2022-08-20T03:49:00.758Z,76.57
2022-08-20T03:51:35.136Z,74.71
2022-08-20T03:54:21.246Z,76.15
2022-08-20T03:56:50.460Z,73.67
2022-08-20T03:59:19.322Z,74.90
2022-08-20T04:01:48.321Z,74.93
2022-08-20T04:04:17.515Z,74.09
2022-08-20T04:06:48.514Z,73.34
2022-08-20T04:09:17.912Z,73.11
2022-08-20T04:11:46.900Z,72.03
2022-08-20T04:14:18.503Z,71.52
2022-08-20T04:16:49.153Z,69.77
2022-08-20T04:19:18.681Z,70.29
2022-08-20T04:21:49.342Z,70.64
2022-08-20T04:24:30.149Z,70.46
2022-08-20T04:27:03.594Z,69.29
2022-08-20T04:29:35.617Z,69.40
2022-08-20T04:32:07.101Z,69.18
2022-08-20T04:34:37.511Z,69.75
2022-08-20T04:37:16.967Z,70.24
2022-08-20T04:39:46.675Z,68.65
2022-08-20T04:42:18.277Z,67.50
2022-08-20T04:44:47.431Z,68.33
2022-08-20T04:47:23.951Z,67.61
2022-08-20T04:50:03.733Z,66.26
2022-08-20T04:52:33.930Z,67.66
2022-08-20T04:55:03.506Z,68.82
2022-08-20T04:57:40.090Z,67.99
2022-08-20T05:00:18.855Z,67.78
2022-08-20T05:02:47.956Z,66.93
2022-08-20T05:05:16.667Z,65.85
2022-08-20T05:07:47.362Z,64.98
2022-08-20T05:10:19.894Z,67.85
2022-08-20T05:12:56.628Z,66.11
2022-08-20T05:15:26.953Z,63.07
2022-08-20T05:17:58.568Z,65.59
2022-08-20T05:20:33.291Z,64.33
2022-08-20T05:23:03.829Z,63.65
2022-08-20T05:25:34.064Z,63.45
2022-08-20T05:28:13.419Z,63.66
2022-08-20T05:30:47.579Z,62.95
2022-08-20T05:33:21.213Z,60.60
2022-08-20T05:35:53.730Z,62.02
2022-08-20T05:38:26.153Z,61.10
2022-08-20T05:40:56.534Z,60.47
2022-08-20T05:43:25.698Z,60.05
2022-08-20T05:45:56.772Z,62.40
2022-08-20T05:48:26.735Z,60.24
2022-08-20T05:50:55.919Z,60.53
2022-08-20T05:53:26.481Z,61.15
2022-08-20T05:55:55.945Z,61.15
2022-08-20T05:58:30.170Z,60.87
2022-08-20T06:01:00.524Z,60.76
2022-08-20T06:06:45.773Z,59.14
2022-08-20T06:09:30.753Z,59.02
2022-08-20T06:12:10.441Z,62.01
2022-08-20T06:14:39.419Z,58.95
2022-08-20T06:17:18.945Z,57.62
2022-08-20T06:19:51.677Z,59.17
2022-08-20T06:22:24.397Z,59.80
2022-08-20T06:24:56.565Z,60.18
2022-08-20T06:27:27.299Z,62.42
2022-08-20T06:29:56.200Z,60.67
2022-08-20T06:32:32.109Z,61.92
2022-08-20T06:35:04.931Z,61.66
2022-08-20T06:37:37.604Z,60.57
2022-08-20T06:40:13.633Z,60.03
2022-08-20T06:42:48.869Z,59.26
2022-08-20T06:45:26.006Z,59.90
2022-08-20T06:47:59.079Z,59.46
2022-08-20T06:50:33.027Z,58.79
2022-08-20T06:53:01.906Z,57.07
2022-08-20T06:55:32.218Z,57.94
2022-08-20T06:58:04.166Z,57.95
2022-08-20T07:00:34.898Z,58.34
2022-08-20T07:03:04.948Z,60.49
2022-08-20T07:05:37.815Z,61.25
2022-08-20T07:08:07.142Z,60.88
2022-08-20T07:10:36.254Z,61.34
2022-08-20T07:13:05.686Z,62.20
2022-08-20T07:15:34.655Z,61.87
2022-08-20T07:18:06.622Z,59.91
2022-08-20T07:20:37.996Z,61.90
2022-08-20T07:23:07.887Z,60.96
2022-08-20T07:25:37.271Z,59.79
2022-08-20T07:28:13.116Z,61.04
2022-08-20T07:31:13.764Z,61.21
2022-08-20T07:33:44.545Z,62.20
2022-08-20T07:36:17.694Z,62.78
2022-08-20T07:38:52.411Z,62.74
2022-08-20T07:41:22.644Z,63.88
2022-08-20T07:43:52.366Z,62.42
2022-08-20T07:46:34.075Z,61.43
2022-08-20T07:49:06.314Z,62.65
2022-08-20T07:51:36.126Z,60.27
2022-08-20T07:54:06.402Z,60.64
2022-08-20T07:56:36.591Z,62.33
2022-08-20T07:59:09.289Z,64.46
2022-08-20T08:01:42.127Z,64.34
2022-08-20T08:04:19.997Z,63.65
2022-08-20T08:06:52.194Z,63.65
2022-08-20T08:09:20.890Z,63.20
2022-08-20T08:11:52.164Z,61.81
2022-08-20T08:14:28.181Z,61.86
2022-08-20T08:17:01.572Z,59.60
2022-08-20T08:19:39.740Z,60.97
2022-08-20T08:22:14.978Z,59.92
2022-08-20T08:24:56.825Z,61.38
2022-08-20T08:27:27.913Z,61.62
2022-08-20T08:29:59.217Z,62.71
2022-08-20T08:32:32.543Z,62.06
2022-08-20T08:35:10.497Z,63.42
2022-08-20T08:37:40.343Z,62.96
2022-08-20T08:40:10.498Z,63.82
2022-08-20T08:42:49.857Z,61.14
2022-08-20T08:45:21.653Z,61.89
2022-08-20T08:47:56.522Z,63.87
2022-08-20T08:50:54.240Z,63.97
2022-08-20T08:53:28.578Z,64.53
2022-08-20T08:55:58.051Z,63.54
2022-08-20T08:58:29.698Z,63.26
2022-08-20T09:01:02.111Z,64.18
2022-08-20T09:03:39.368Z,65.30
2022-08-20T09:06:09.153Z,66.38
2022-08-20T09:08:49.558Z,66.70
2022-08-20T09:11:20.519Z,68.86
2022-08-20T09:13:53.509Z,68.40
2022-08-20T09:16:26.159Z,71.51
2022-08-20T09:19:00.448Z,71.71
2022-08-20T09:21:29.795Z,76.26
2022-08-20T09:23:59.324Z,75.69
2022-08-20T09:26:29.155Z,76.47
2022-08-20T09:28:58.337Z,84.59
2022-08-20T09:31:28.811Z,87.57
2022-08-20T09:33:59.355Z,88.46
2022-08-20T09:36:32.721Z,84.86
2022-08-20T09:39:03.498Z,83.36
2022-08-20T09:41:34.672Z,87.86
2022-08-20T09:44:04.034Z,89.94
2022-08-20T09:46:33.015Z,86.94
2022-08-20T09:49:02.048Z,80.74
2022-08-20T09:51:38.397Z,80.82
2022-08-20T09:54:07.952Z,82.79
2022-08-20T09:56:37.309Z,80.17
2022-08-20T09:59:06.979Z,82.08
2022-08-20T10:01:36.311Z,82.58
2022-08-20T10:04:05.554Z,83.65
2022-08-20T10:06:41.356Z,83.26
2022-08-20T10:09:10.545Z,83.83
2022-08-20T10:11:39.410Z,82.76
2022-08-20T10:14:10.634Z,82.27
2022-08-20T10:16:39.450Z,83.82
2022-08-20T10:19:08.280Z,84.46
2022-08-20T10:21:38.992Z,83.35
2022-08-20T10:24:08.408Z,83.46
2022-08-20T10:26:39.685Z,85.17
2022-08-20T10:29:08.945Z,86.06
2022-08-20T10:31:59.995Z,86.71
2022-08-20T10:34:29.172Z,86.14
2022-08-20T10:36:59.892Z,86.22
2022-08-20T10:39:29.057Z,87.04
2022-08-20T10:42:00.740Z,86.65
2022-08-20T10:44:29.676Z,86.16
2022-08-20T10:46:58.732Z,86.32
2022-08-20T10:49:46.098Z,95.17
2022-08-20T10:52:33.526Z,100.00
2022-08-20T10:55:05.144Z,100.00
2022-08-20T10:57:37.349Z,100.00
2022-08-20T11:00:08.938Z,100.00
2022-08-20T11:02:38.376Z,100.00
2022-08-20T11:05:08.257Z,100.00
2022-08-20T11:10:29.160Z,100.00
2022-08-20T11:13:04.123Z,100.00
2022-08-20T11:15:35.580Z,100.00
2022-08-20T11:18:04.889Z,100.00
2022-08-20T11:20:34.618Z,100.00
2022-08-20T11:23:03.893Z,100.00
2022-08-20T11:25:33.451Z,100.00
2022-08-20T11:28:02.624Z,100.00
2022-08-20T11:30:34.879Z,100.00
2022-08-20T11:33:04.258Z,100.00
2022-08-20T11:35:49.484Z,100.00
2022-08-20T11:38:20.096Z,100.00
2022-08-20T11:40:49.161Z,100.00
2022-08-20T11:43:18.469Z,100.00
2022-08-20T11:45:51.251Z,100.00
2022-08-20T11:48:20.552Z,100.00
2022-08-20T11:50:50.050Z,100.00
2022-08-20T11:53:19.518Z,100.00
2022-08-20T11:55:49.166Z,100.00
2022-08-20T11:58:18.910Z,100.00
2022-08-20T12:00:48.139Z,100.00
2022-08-20T12:03:17.304Z,100.00
2022-08-20T12:05:47.872Z,100.00
2022-08-20T12:08:26.704Z,100.00
2022-08-20T12:11:03.731Z,100.00
2022-08-20T12:13:47.979Z,100.00
2022-08-20T12:16:19.933Z,100.00
2022-08-20T12:18:50.386Z,100.00
2022-08-20T12:21:19.529Z,100.00
2022-08-20T12:23:48.514Z,100.00
2022-08-20T12:26:17.831Z,100.00
2022-08-20T12:28:46.829Z,100.00
2022-08-20T12:31:15.919Z,100.00
2022-08-20T12:33:45.078Z,100.00
2022-08-20T12:36:14.069Z,96.64
2022-08-20T12:38:43.304Z,97.44
2022-08-20T12:41:12.488Z,98.17
2022-08-20T12:43:41.351Z,100.00
2022-08-20T12:46:10.461Z,100.00
2022-08-20T12:48:39.373Z,100.00
2022-08-20T12:51:08.550Z,100.00
2022-08-20T12:53:37.525Z,96.77
2022-08-20T12:56:06.885Z,98.02
2022-08-20T12:58:36.095Z,100.00
2022-08-20T13:01:05.099Z,100.00
2022-08-20T13:03:34.247Z,100.00
2022-08-20T13:06:12.429Z,100.00
2022-08-20T13:08:41.262Z,100.00
2022-08-20T13:11:10.205Z,100.00
2022-08-20T13:13:39.363Z,100.00
2022-08-20T13:16:08.462Z,100.00
2022-08-20T13:18:37.582Z,100.00
2022-08-20T13:21:06.855Z,100.00
2022-08-20T13:23:35.701Z,100.00
2022-08-20T13:26:06.340Z,100.00
2022-08-20T13:28:35.488Z,100.00
2022-08-20T13:31:04.557Z,100.00
2022-08-20T13:33:34.078Z,100.00
2022-08-20T13:36:03.142Z,100.00
2022-08-20T13:38:32.847Z,100.00
2022-08-20T13:41:01.944Z,100.00
2022-08-20T13:43:31.406Z,99.77
2022-08-20T13:46:00.307Z,100.00
2022-08-20T13:48:29.276Z,100.00
2022-08-20T13:50:58.945Z,100.00
2022-08-20T13:53:28.280Z,99.93
2022-08-20T13:55:57.361Z,100.00
2022-08-20T13:58:26.478Z,100.00
2022-08-20T14:00:55.513Z,100.00
2022-08-20T14:03:25.277Z,100.00
2022-08-20T14:05:54.954Z,100.00
2022-08-20T14:08:25.137Z,100.00
2022-08-20T14:10:54.273Z,100.00
2022-08-20T14:13:25.727Z,100.00
2022-08-20T14:15:55.245Z,100.00
2022-08-20T14:18:24.640Z,100.00
2022-08-20T14:20:53.459Z,100.00
2022-08-20T14:23:22.149Z,100.00
2022-08-20T14:25:52.237Z,100.00
2022-08-20T14:28:24.180Z,100.00
2022-08-20T14:30:53.948Z,100.00
2022-08-20T14:33:24.706Z,100.00
2022-08-20T14:35:54.169Z,100.00
2022-08-20T14:38:23.313Z,100.00
2022-08-20T14:40:52.185Z,100.00
2022-08-20T14:43:21.232Z,100.00
2022-08-20T14:45:50.143Z,100.00
2022-08-20T14:48:19.223Z,100.00
2022-08-20T14:50:48.312Z,100.00
2022-08-20T14:53:17.279Z,100.00
2022-08-20T14:55:46.384Z,100.00
2022-08-20T14:58:17.922Z,100.00
2022-08-20T15:00:47.625Z,100.00
2022-08-20T15:03:16.624Z,100.00
2022-08-20T15:05:45.491Z,100.00
2022-08-20T15:08:14.373Z,100.00
2022-08-20T15:10:44.477Z,100.00
2022-08-20T15:13:13.461Z,100.00
2022-08-20T15:15:42.697Z,100.00
2022-08-20T15:18:11.576Z,100.00
2022-08-20T15:20:40.464Z,100.00
2022-08-20T15:23:09.614Z,100.00
2022-08-20T15:25:38.799Z,100.00
2022-08-20T15:28:10.912Z,100.00
2022-08-20T15:30:42.143Z,100.00
2022-08-20T15:33:11.878Z,100.00
2022-08-20T15:35:40.823Z,100.00
2022-08-20T15:38:09.775Z,100.00
2022-08-20T15:40:38.852Z,100.00
2022-08-20T15:43:07.925Z,100.00
2022-08-20T15:45:37.822Z,100.00
2022-08-20T15:48:22.199Z,100.00
2022-08-20T15:50:57.764Z,100.00
2022-08-20T15:53:39.192Z,100.00
2022-08-20T15:56:26.372Z,100.00
2022-08-20T15:59:13.168Z,100.00
2022-08-20T16:02:03.926Z,100.00
2022-08-20T16:04:53.814Z,99.24
2022-08-20T16:07:28.950Z,100.00
2022-08-20T16:10:17.987Z,100.00
2022-08-20T16:12:53.639Z,100.00
2022-08-20T16:15:30.959Z,100.00
2022-08-20T16:18:25.859Z,100.00
2022-08-20T16:20:57.383Z,100.00
2022-08-20T16:23:36.526Z,100.00
2022-08-20T16:26:14.295Z,100.00
2022-08-20T16:29:03.578Z,100.00
2022-08-20T16:31:41.528Z,100.00
2022-08-20T16:34:34.649Z,100.00
2022-08-20T16:37:11.815Z,100.00
2022-08-20T16:39:50.351Z,100.00
2022-08-20T16:42:25.707Z,100.00
2022-08-20T16:44:58.876Z,100.00
2022-08-20T16:47:31.333Z,100.00
2022-08-20T16:50:02.961Z,100.00
2022-08-20T16:52:32.057Z,100.00
2022-08-20T16:55:01.051Z,100.00
2022-08-20T16:57:30.985Z,100.00
2022-08-20T17:00:26.316Z,100.00
2022-08-20T17:03:04.725Z,100.00
2022-08-20T17:05:49.812Z,100.00
2022-08-20T17:08:36.021Z,100.00
2022-08-20T17:11:15.751Z,100.00
2022-08-20T17:13:49.937Z,100.00
2022-08-20T17:16:21.379Z,100.00
2022-08-20T17:18:55.425Z,100.00
2022-08-20T17:21:36.452Z,100.00
2022-08-20T17:24:22.088Z,100.00
2022-08-20T17:27:00.909Z,100.00
2022-08-20T17:29:33.812Z,100.00
2022-08-20T17:32:17.795Z,100.00
2022-08-20T17:34:54.644Z,100.00
2022-08-20T17:37:28.114Z,100.00
2022-08-20T17:40:12.757Z,100.00
2022-08-20T17:43:02.414Z,100.00
2022-08-20T17:45:44.035Z,100.00
2022-08-20T17:48:21.184Z,100.00
2022-08-20T17:50:51.550Z,100.00
2022-08-20T17:53:28.049Z,100.00
2022-08-20T17:56:04.297Z,100.00
2022-08-20T17:58:54.258Z,100.00
2022-08-20T18:01:25.342Z,100.00
2022-08-20T18:03:54.700Z,100.00
2022-08-20T18:06:48.879Z,100.00
2022-08-20T18:09:22.794Z,100.00
2022-08-20T18:12:04.477Z,100.00
2022-08-20T18:14:54.639Z,100.00
2022-08-20T18:17:55.486Z,100.00
2022-08-20T18:20:24.836Z,100.00
2022-08-20T18:23:04.653Z,100.00
2022-08-20T18:25:43.681Z,100.00
2022-08-20T18:28:42.265Z,100.00
2022-08-20T18:31:26.483Z,100.00
2022-08-20T18:33:56.506Z,100.00
2022-08-20T18:36:31.175Z,100.00
2022-08-20T18:39:05.678Z,100.00
2022-08-20T18:41:38.085Z,100.00
2022-08-20T18:44:09.118Z,100.00
2022-08-20T18:46:51.500Z,100.00
2022-08-20T18:49:30.886Z,100.00
2022-08-20T18:52:10.094Z,100.00
2022-08-20T18:54:42.190Z,100.00
2022-08-20T18:57:25.043Z,100.00
2022-08-20T19:00:13.419Z,100.00
2022-08-20T19:02:59.112Z,100.00
2022-08-20T19:05:35.885Z,100.00
2022-08-20T19:08:06.915Z,100.00
2022-08-20T19:10:58.023Z,100.00
2022-08-20T19:13:30.196Z,100.00
2022-08-20T19:16:10.740Z,100.00
2022-08-20T19:18:48.505Z,100.00
2022-08-20T19:21:20.467Z,100.00
2022-08-20T19:23:52.987Z,100.00
2022-08-20T19:26:25.798Z,100.00
2022-08-20T19:29:00.809Z,100.00
2022-08-20T19:31:34.289Z,100.00
2022-08-20T19:34:20.339Z,100.00
2022-08-20T19:36:57.615Z,100.00
2022-08-20T19:39:28.432Z,100.00
2022-08-20T19:42:03.112Z,100.00
2022-08-20T19:44:39.322Z,100.00
2022-08-20T19:47:19.842Z,100.00
2022-08-20T19:50:23.276Z,100.00
2022-08-20T19:53:28.811Z,100.00
2022-08-20T19:56:11.735Z,100.00
2022-08-20T19:58:41.332Z,100.00
2022-08-20T20:01:19.092Z,100.00
2022-08-20T20:04:04.331Z,100.00
2022-08-20T20:06:42.696Z,100.00
2022-08-20T20:09:30.423Z,100.00
2022-08-20T20:12:06.123Z,100.00
2022-08-20T20:14:37.181Z,100.00
2022-08-20T20:17:08.684Z,100.00
2022-08-20T20:19:57.849Z,100.00
2022-08-20T20:22:34.946Z,100.00
2022-08-20T20:25:23.151Z,100.00
2022-08-20T20:27:58.560Z,100.00
2022-08-20T20:30:31.455Z,100.00
2022-08-20T20:33:11.515Z,100.00
2022-08-20T20:35:41.140Z,100.00
2022-08-20T20:38:15.735Z,100.00
2022-08-20T20:40:50.867Z,100.00
2022-08-20T20:43:38.263Z,100.00
2022-08-20T20:46:24.440Z,100.00
2022-08-20T20:49:02.003Z,100.00
2022-08-20T20:51:34.995Z,100.00
2022-08-20T20:54:09.074Z,100.00
2022-08-20T20:56:41.452Z,100.00
2022-08-20T20:59:10.739Z,100.00
2022-08-20T21:01:49.054Z,100.00
2022-08-20T21:04:24.684Z,100.00
2022-08-20T21:06:55.673Z,100.00
2022-08-20T21:09:26.605Z,100.00
2022-08-20T21:11:55.693Z,100.00
2022-08-20T21:14:24.507Z,100.00
2022-08-20T21:16:55.128Z,100.00
2022-08-20T21:19:24.368Z,100.00
2022-08-20T21:21:53.213Z,100.00
2022-08-20T21:24:22.607Z,100.00
2022-08-20T21:26:53.830Z,100.00
2022-08-20T21:29:32.725Z,100.00
2022-08-20T21:32:02.007Z,100.00
2022-08-20T21:34:31.119Z,100.00
2022-08-20T21:37:00.123Z,100.00
2022-08-20T21:39:29.630Z,100.00
2022-08-20T21:42:03.263Z,100.00
2022-08-20T21:44:33.627Z,100.00
2022-08-20T21:47:03.250Z,100.00
2022-08-20T21:49:33.100Z,100.00
2022-08-20T21:52:02.427Z,100.00
2022-08-20T21:54:31.563Z,100.00
2022-08-20T21:57:10.415Z,100.00
2022-08-20T21:59:40.361Z,100.00
2022-08-20T22:02:10.272Z,100.00
2022-08-20T22:04:39.155Z,100.00
2022-08-20T22:07:08.305Z,100.00
2022-08-20T22:09:39.570Z,100.00
2022-08-20T22:12:17.146Z,100.00
2022-08-20T22:14:47.030Z,100.00
2022-08-20T22:17:16.395Z,100.00
2022-08-20T22:19:45.906Z,100.00
2022-08-20T22:22:16.604Z,100.00
2022-08-20T22:24:46.754Z,100.00
2022-08-20T22:27:16.376Z,100.00
2022-08-20T22:29:45.507Z,100.00
2022-08-20T22:32:15.616Z,100.00
2022-08-20T22:34:46.616Z,100.00
2022-08-20T22:37:16.432Z,100.00
2022-08-20T22:39:45.617Z,100.00
2022-08-20T22:42:14.916Z,100.00
2022-08-20T22:44:43.637Z,100.00
2022-08-20T22:47:15.711Z,100.00
2022-08-20T22:49:45.608Z,100.00
2022-08-20T22:52:14.478Z,100.00
2022-08-20T22:54:44.759Z,100.00
2022-08-20T22:57:15.683Z,100.00
2022-08-20T22:59:52.882Z,100.00
2022-08-20T23:02:24.515Z,100.00
2022-08-20T23:04:53.733Z,100.00
2022-08-20T23:07:22.790Z,100.00
2022-08-20T23:09:51.491Z,100.00
2022-08-20T23:12:20.772Z,100.00
2022-08-20T23:14:49.427Z,100.00
2022-08-20T23:17:20.167Z,100.00
2022-08-20T23:19:50.393Z,100.00
2022-08-20T23:22:20.452Z,100.00
2022-08-20T23:24:49.923Z,100.00
2022-08-20T23:27:21.740Z,100.00
2022-08-20T23:29:50.673Z,100.00
2022-08-20T23:32:19.690Z,100.00
2022-08-20T23:34:48.744Z,100.00
2022-08-20T23:37:21.866Z,100.00
2022-08-20T23:39:51.013Z,100.00
2022-08-20T23:42:20.373Z,100.00
2022-08-20T23:44:49.314Z,100.00
2022-08-20T23:47:22.727Z,100.00
2022-08-20T23:49:52.441Z,100.00
2022-08-20T23:52:21.617Z,100.00
2022-08-20T23:54:51.134Z,100.00
2022-08-20T23:57:21.043Z,100.00
2022-08-20T23:59:53.049Z,100.00
